<?xml version="1.0" encoding="UTF-8" standalone="no" ?>
<gpx xmlns="http://www.topografix.com/GPX/1/1" xmlns:xsi="http://www.w3.org/2001/XMLSchema-instance" xsi:schemaLocation="http://www.topografix.com/GPX/1/1 http://www.topografix.com/GPX/1/1/gpx.xsd" version="1.1" creator="VisuGPX - https://www.visugpx.com">
  <metadata>
    <name>tractage au Charmant Som</name>
    <desc><![CDATA[rando-tractage Nat\'n\'Co départ Col de Porte pour le Charmant Som]]></desc>
  </metadata>
  <trk>
    <name><![CDATA[tractage au Charmant Som_1]]></name>
    <trkseg>
      <trkpt lat="45.31117" lon="5.75475">
        <ele>1639.2</ele>
        <time>2011-01-02T09:55:51Z</time>
      </trkpt>
      <trkpt lat="45.31117" lon="5.75476">
        <ele>1637.7</ele>
        <time>2011-01-02T09:55:56.001Z</time>
      </trkpt>
      <trkpt lat="45.31119" lon="5.75469">
        <ele>1641.7</ele>
        <time>2011-01-02T09:57:21.001Z</time>
      </trkpt>
      <trkpt lat="45.31115" lon="5.75484">
        <ele>1620</ele>
        <time>2011-01-02T09:59:56.004Z</time>
      </trkpt>
      <trkpt lat="45.31119" lon="5.75484">
        <ele>1614</ele>
        <time>2011-01-02T10:02:00.998Z</time>
      </trkpt>
      <trkpt lat="45.3112" lon="5.75473">
        <ele>1616.2</ele>
        <time>2011-01-02T10:03:01Z</time>
      </trkpt>
      <trkpt lat="45.31128" lon="5.75475">
        <ele>1613.9</ele>
        <time>2011-01-02T10:03:21.001Z</time>
      </trkpt>
      <trkpt lat="45.31136" lon="5.75478">
        <ele>1615.8</ele>
        <time>2011-01-02T10:03:26.001Z</time>
      </trkpt>
      <trkpt lat="45.31145" lon="5.7548">
        <ele>1616.1</ele>
        <time>2011-01-02T10:03:31Z</time>
      </trkpt>
      <trkpt lat="45.31152" lon="5.75482">
        <ele>1617.7</ele>
        <time>2011-01-02T10:03:35.997Z</time>
      </trkpt>
      <trkpt lat="45.3116" lon="5.75484">
        <ele>1619.8</ele>
        <time>2011-01-02T10:03:41Z</time>
      </trkpt>
      <trkpt lat="45.31168" lon="5.75486">
        <ele>1622.4</ele>
        <time>2011-01-02T10:03:45.997Z</time>
      </trkpt>
      <trkpt lat="45.31176" lon="5.75487">
        <ele>1624.3</ele>
        <time>2011-01-02T10:03:50.994Z</time>
      </trkpt>
      <trkpt lat="45.31187" lon="5.75488">
        <ele>1626.5</ele>
        <time>2011-01-02T10:03:56.002Z</time>
      </trkpt>
      <trkpt lat="45.31193" lon="5.75488">
        <ele>1626.9</ele>
        <time>2011-01-02T10:04:00.998Z</time>
      </trkpt>
      <trkpt lat="45.31203" lon="5.75487">
        <ele>1626.4</ele>
        <time>2011-01-02T10:04:05.998Z</time>
      </trkpt>
      <trkpt lat="45.31211" lon="5.75483">
        <ele>1627.1</ele>
        <time>2011-01-02T10:04:11.001Z</time>
      </trkpt>
      <trkpt lat="45.31222" lon="5.75475">
        <ele>1629.7</ele>
        <time>2011-01-02T10:04:20.998Z</time>
      </trkpt>
      <trkpt lat="45.31231" lon="5.75466">
        <ele>1629.9</ele>
        <time>2011-01-02T10:04:26Z</time>
      </trkpt>
      <trkpt lat="45.31235" lon="5.7546">
        <ele>1628.5</ele>
        <time>2011-01-02T10:04:31.002Z</time>
      </trkpt>
      <trkpt lat="45.31242" lon="5.75451">
        <ele>1627</ele>
        <time>2011-01-02T10:04:36.001Z</time>
      </trkpt>
      <trkpt lat="45.31248" lon="5.75445">
        <ele>1625.7</ele>
        <time>2011-01-02T10:04:41.002Z</time>
      </trkpt>
      <trkpt lat="45.31253" lon="5.75437">
        <ele>1626.4</ele>
        <time>2011-01-02T10:04:46.001Z</time>
      </trkpt>
      <trkpt lat="45.31259" lon="5.75429">
        <ele>1626.6</ele>
        <time>2011-01-02T10:04:51.001Z</time>
      </trkpt>
      <trkpt lat="45.31265" lon="5.75422">
        <ele>1625.5</ele>
        <time>2011-01-02T10:04:56.001Z</time>
      </trkpt>
      <trkpt lat="45.31271" lon="5.75417">
        <ele>1626</ele>
        <time>2011-01-02T10:05:01.001Z</time>
      </trkpt>
      <trkpt lat="45.31278" lon="5.75413">
        <ele>1626.5</ele>
        <time>2011-01-02T10:05:05.998Z</time>
      </trkpt>
      <trkpt lat="45.31283" lon="5.75411">
        <ele>1626.5</ele>
        <time>2011-01-02T10:05:10.998Z</time>
      </trkpt>
      <trkpt lat="45.3129" lon="5.7541">
        <ele>1625.4</ele>
        <time>2011-01-02T10:05:15.994Z</time>
      </trkpt>
      <trkpt lat="45.31297" lon="5.75408">
        <ele>1624.3</ele>
        <time>2011-01-02T10:05:21.001Z</time>
      </trkpt>
      <trkpt lat="45.31303" lon="5.75406">
        <ele>1623.1</ele>
        <time>2011-01-02T10:05:26Z</time>
      </trkpt>
      <trkpt lat="45.31308" lon="5.75404">
        <ele>1623.2</ele>
        <time>2011-01-02T10:05:31.001Z</time>
      </trkpt>
      <trkpt lat="45.31316" lon="5.75402">
        <ele>1625.3</ele>
        <time>2011-01-02T10:05:35.998Z</time>
      </trkpt>
      <trkpt lat="45.31323" lon="5.75402">
        <ele>1627.1</ele>
        <time>2011-01-02T10:05:41.001Z</time>
      </trkpt>
      <trkpt lat="45.3133" lon="5.75395">
        <ele>1627.7</ele>
        <time>2011-01-02T10:05:50.998Z</time>
      </trkpt>
      <trkpt lat="45.31335" lon="5.75391">
        <ele>1629.5</ele>
        <time>2011-01-02T10:05:56.002Z</time>
      </trkpt>
      <trkpt lat="45.3134" lon="5.75386">
        <ele>1631.8</ele>
        <time>2011-01-02T10:06:00.998Z</time>
      </trkpt>
      <trkpt lat="45.31345" lon="5.7538">
        <ele>1634.2</ele>
        <time>2011-01-02T10:06:06Z</time>
      </trkpt>
      <trkpt lat="45.31349" lon="5.75376">
        <ele>1636.8</ele>
        <time>2011-01-02T10:06:11Z</time>
      </trkpt>
      <trkpt lat="45.31355" lon="5.75372">
        <ele>1637.9</ele>
        <time>2011-01-02T10:06:16.002Z</time>
      </trkpt>
      <trkpt lat="45.31362" lon="5.75371">
        <ele>1639.1</ele>
        <time>2011-01-02T10:06:21Z</time>
      </trkpt>
      <trkpt lat="45.3137" lon="5.75372">
        <ele>1641</ele>
        <time>2011-01-02T10:06:25.998Z</time>
      </trkpt>
      <trkpt lat="45.31377" lon="5.75374">
        <ele>1643.2</ele>
        <time>2011-01-02T10:06:30.998Z</time>
      </trkpt>
      <trkpt lat="45.31385" lon="5.75378">
        <ele>1646.3</ele>
        <time>2011-01-02T10:06:36Z</time>
      </trkpt>
      <trkpt lat="45.31393" lon="5.75379">
        <ele>1648.8</ele>
        <time>2011-01-02T10:06:41Z</time>
      </trkpt>
      <trkpt lat="45.31397" lon="5.75379">
        <ele>1646.7</ele>
        <time>2011-01-02T10:06:46Z</time>
      </trkpt>
      <trkpt lat="45.31402" lon="5.7538">
        <ele>1645.4</ele>
        <time>2011-01-02T10:06:51Z</time>
      </trkpt>
      <trkpt lat="45.31406" lon="5.75382">
        <ele>1644.5</ele>
        <time>2011-01-02T10:06:56Z</time>
      </trkpt>
      <trkpt lat="45.31411" lon="5.75383">
        <ele>1643.9</ele>
        <time>2011-01-02T10:07:01Z</time>
      </trkpt>
      <trkpt lat="45.31416" lon="5.75383">
        <ele>1644</ele>
        <time>2011-01-02T10:07:05.998Z</time>
      </trkpt>
      <trkpt lat="45.31421" lon="5.75385">
        <ele>1646.9</ele>
        <time>2011-01-02T10:07:16.001Z</time>
      </trkpt>
      <trkpt lat="45.31429" lon="5.75386">
        <ele>1651.1</ele>
        <time>2011-01-02T10:07:26.001Z</time>
      </trkpt>
      <trkpt lat="45.31437" lon="5.75388">
        <ele>1653</ele>
        <time>2011-01-02T10:07:31.001Z</time>
      </trkpt>
      <trkpt lat="45.31444" lon="5.75389">
        <ele>1655.5</ele>
        <time>2011-01-02T10:07:36Z</time>
      </trkpt>
      <trkpt lat="45.3145" lon="5.75391">
        <ele>1657.6</ele>
        <time>2011-01-02T10:07:41.001Z</time>
      </trkpt>
      <trkpt lat="45.31456" lon="5.75392">
        <ele>1659.1</ele>
        <time>2011-01-02T10:07:45.995Z</time>
      </trkpt>
      <trkpt lat="45.31462" lon="5.75394">
        <ele>1661</ele>
        <time>2011-01-02T10:07:50.997Z</time>
      </trkpt>
      <trkpt lat="45.31466" lon="5.75397">
        <ele>1663</ele>
        <time>2011-01-02T10:07:55.998Z</time>
      </trkpt>
      <trkpt lat="45.31471" lon="5.75399">
        <ele>1664.8</ele>
        <time>2011-01-02T10:08:01.002Z</time>
      </trkpt>
      <trkpt lat="45.31477" lon="5.754">
        <ele>1667.1</ele>
        <time>2011-01-02T10:08:06.001Z</time>
      </trkpt>
      <trkpt lat="45.31482" lon="5.75401">
        <ele>1669</ele>
        <time>2011-01-02T10:08:10.998Z</time>
      </trkpt>
      <trkpt lat="45.31489" lon="5.75402">
        <ele>1671.3</ele>
        <time>2011-01-02T10:08:16Z</time>
      </trkpt>
      <trkpt lat="45.31496" lon="5.75403">
        <ele>1672.4</ele>
        <time>2011-01-02T10:08:20.998Z</time>
      </trkpt>
      <trkpt lat="45.31502" lon="5.75404">
        <ele>1672.1</ele>
        <time>2011-01-02T10:08:26Z</time>
      </trkpt>
      <trkpt lat="45.31508" lon="5.75406">
        <ele>1670.9</ele>
        <time>2011-01-02T10:08:30.998Z</time>
      </trkpt>
      <trkpt lat="45.31513" lon="5.7541">
        <ele>1671.1</ele>
        <time>2011-01-02T10:08:35.998Z</time>
      </trkpt>
      <trkpt lat="45.31519" lon="5.75416">
        <ele>1672.2</ele>
        <time>2011-01-02T10:08:40.998Z</time>
      </trkpt>
      <trkpt lat="45.31525" lon="5.75421">
        <ele>1673.5</ele>
        <time>2011-01-02T10:08:45.997Z</time>
      </trkpt>
      <trkpt lat="45.3153" lon="5.75428">
        <ele>1675.2</ele>
        <time>2011-01-02T10:08:50.998Z</time>
      </trkpt>
      <trkpt lat="45.31535" lon="5.75433">
        <ele>1676.3</ele>
        <time>2011-01-02T10:08:56Z</time>
      </trkpt>
      <trkpt lat="45.31538" lon="5.75437">
        <ele>1676.8</ele>
        <time>2011-01-02T10:09:00.998Z</time>
      </trkpt>
      <trkpt lat="45.31543" lon="5.75442">
        <ele>1676.2</ele>
        <time>2011-01-02T10:09:05.998Z</time>
      </trkpt>
      <trkpt lat="45.31547" lon="5.75445">
        <ele>1676.6</ele>
        <time>2011-01-02T10:09:11Z</time>
      </trkpt>
      <trkpt lat="45.31551" lon="5.75448">
        <ele>1676.4</ele>
        <time>2011-01-02T10:09:15.998Z</time>
      </trkpt>
      <trkpt lat="45.31556" lon="5.7545">
        <ele>1675.6</ele>
        <time>2011-01-02T10:09:21.001Z</time>
      </trkpt>
      <trkpt lat="45.31562" lon="5.75452">
        <ele>1675.3</ele>
        <time>2011-01-02T10:09:26.002Z</time>
      </trkpt>
      <trkpt lat="45.31567" lon="5.75453">
        <ele>1675.6</ele>
        <time>2011-01-02T10:09:31.001Z</time>
      </trkpt>
      <trkpt lat="45.31573" lon="5.75454">
        <ele>1675.9</ele>
        <time>2011-01-02T10:09:36.002Z</time>
      </trkpt>
      <trkpt lat="45.31579" lon="5.75455">
        <ele>1677.1</ele>
        <time>2011-01-02T10:09:41Z</time>
      </trkpt>
      <trkpt lat="45.31584" lon="5.75457">
        <ele>1677.7</ele>
        <time>2011-01-02T10:09:46Z</time>
      </trkpt>
      <trkpt lat="45.31589" lon="5.75457">
        <ele>1677.2</ele>
        <time>2011-01-02T10:09:51.002Z</time>
      </trkpt>
      <trkpt lat="45.31594" lon="5.75458">
        <ele>1677.4</ele>
        <time>2011-01-02T10:09:56Z</time>
      </trkpt>
      <trkpt lat="45.31598" lon="5.7546">
        <ele>1678.2</ele>
        <time>2011-01-02T10:10:01Z</time>
      </trkpt>
      <trkpt lat="45.31603" lon="5.75463">
        <ele>1680.6</ele>
        <time>2011-01-02T10:10:05.998Z</time>
      </trkpt>
      <trkpt lat="45.31608" lon="5.75467">
        <ele>1683.7</ele>
        <time>2011-01-02T10:10:10.998Z</time>
      </trkpt>
      <trkpt lat="45.31614" lon="5.75472">
        <ele>1684.6</ele>
        <time>2011-01-02T10:10:15.998Z</time>
      </trkpt>
      <trkpt lat="45.31619" lon="5.75476">
        <ele>1684</ele>
        <time>2011-01-02T10:10:20.998Z</time>
      </trkpt>
      <trkpt lat="45.31624" lon="5.75481">
        <ele>1684.3</ele>
        <time>2011-01-02T10:10:25.997Z</time>
      </trkpt>
      <trkpt lat="45.31629" lon="5.75486">
        <ele>1684.9</ele>
        <time>2011-01-02T10:10:30.998Z</time>
      </trkpt>
      <trkpt lat="45.31634" lon="5.7549">
        <ele>1684.8</ele>
        <time>2011-01-02T10:10:36.001Z</time>
      </trkpt>
      <trkpt lat="45.31639" lon="5.75494">
        <ele>1684.6</ele>
        <time>2011-01-02T10:10:41.001Z</time>
      </trkpt>
      <trkpt lat="45.31643" lon="5.75498">
        <ele>1684.3</ele>
        <time>2011-01-02T10:10:46.001Z</time>
      </trkpt>
      <trkpt lat="45.31647" lon="5.75503">
        <ele>1683.4</ele>
        <time>2011-01-02T10:10:51Z</time>
      </trkpt>
      <trkpt lat="45.31651" lon="5.75508">
        <ele>1682.1</ele>
        <time>2011-01-02T10:10:56.001Z</time>
      </trkpt>
      <trkpt lat="45.31654" lon="5.75513">
        <ele>1680.9</ele>
        <time>2011-01-02T10:11:01Z</time>
      </trkpt>
      <trkpt lat="45.31658" lon="5.75517">
        <ele>1679.9</ele>
        <time>2011-01-02T10:11:06Z</time>
      </trkpt>
      <trkpt lat="45.31661" lon="5.75521">
        <ele>1679.9</ele>
        <time>2011-01-02T10:11:11.001Z</time>
      </trkpt>
      <trkpt lat="45.31667" lon="5.75526">
        <ele>1680.3</ele>
        <time>2011-01-02T10:11:16.001Z</time>
      </trkpt>
      <trkpt lat="45.31672" lon="5.7553">
        <ele>1681.2</ele>
        <time>2011-01-02T10:11:21Z</time>
      </trkpt>
      <trkpt lat="45.31676" lon="5.75536">
        <ele>1682.3</ele>
        <time>2011-01-02T10:11:26Z</time>
      </trkpt>
      <trkpt lat="45.31679" lon="5.75541">
        <ele>1681.8</ele>
        <time>2011-01-02T10:11:31.001Z</time>
      </trkpt>
      <trkpt lat="45.31683" lon="5.75544">
        <ele>1681.9</ele>
        <time>2011-01-02T10:11:36.001Z</time>
      </trkpt>
      <trkpt lat="45.31687" lon="5.75547">
        <ele>1682.9</ele>
        <time>2011-01-02T10:11:41Z</time>
      </trkpt>
      <trkpt lat="45.31691" lon="5.75549">
        <ele>1683.9</ele>
        <time>2011-01-02T10:11:46Z</time>
      </trkpt>
      <trkpt lat="45.31696" lon="5.75551">
        <ele>1685.4</ele>
        <time>2011-01-02T10:11:51.001Z</time>
      </trkpt>
      <trkpt lat="45.31702" lon="5.75554">
        <ele>1686.6</ele>
        <time>2011-01-02T10:11:56Z</time>
      </trkpt>
      <trkpt lat="45.31707" lon="5.75557">
        <ele>1687.9</ele>
        <time>2011-01-02T10:12:01.001Z</time>
      </trkpt>
      <trkpt lat="45.31712" lon="5.75558">
        <ele>1688.2</ele>
        <time>2011-01-02T10:12:06Z</time>
      </trkpt>
      <trkpt lat="45.31717" lon="5.7556">
        <ele>1688.7</ele>
        <time>2011-01-02T10:12:10.998Z</time>
      </trkpt>
      <trkpt lat="45.31723" lon="5.75563">
        <ele>1689.7</ele>
        <time>2011-01-02T10:12:16Z</time>
      </trkpt>
      <trkpt lat="45.31728" lon="5.75569">
        <ele>1690.8</ele>
        <time>2011-01-02T10:12:21Z</time>
      </trkpt>
      <trkpt lat="45.31733" lon="5.75575">
        <ele>1691.8</ele>
        <time>2011-01-02T10:12:26.001Z</time>
      </trkpt>
      <trkpt lat="45.31736" lon="5.75581">
        <ele>1691.3</ele>
        <time>2011-01-02T10:12:31Z</time>
      </trkpt>
      <trkpt lat="45.31738" lon="5.75587">
        <ele>1690.2</ele>
        <time>2011-01-02T10:12:36.002Z</time>
      </trkpt>
      <trkpt lat="45.31745" lon="5.75596">
        <ele>1689.9</ele>
        <time>2011-01-02T10:12:51Z</time>
      </trkpt>
      <trkpt lat="45.31748" lon="5.756">
        <ele>1690</ele>
        <time>2011-01-02T10:12:55.998Z</time>
      </trkpt>
      <trkpt lat="45.3175" lon="5.75605">
        <ele>1688.6</ele>
        <time>2011-01-02T10:13:36.001Z</time>
      </trkpt>
      <trkpt lat="45.31753" lon="5.75608">
        <ele>1688.5</ele>
        <time>2011-01-02T10:13:41.001Z</time>
      </trkpt>
      <trkpt lat="45.31763" lon="5.75613">
        <ele>1690.1</ele>
        <time>2011-01-02T10:13:56Z</time>
      </trkpt>
      <trkpt lat="45.31768" lon="5.75612">
        <ele>1689.7</ele>
        <time>2011-01-02T10:14:00.998Z</time>
      </trkpt>
      <trkpt lat="45.31772" lon="5.7561">
        <ele>1690</ele>
        <time>2011-01-02T10:14:05.998Z</time>
      </trkpt>
      <trkpt lat="45.31777" lon="5.75608">
        <ele>1691.7</ele>
        <time>2011-01-02T10:14:11Z</time>
      </trkpt>
      <trkpt lat="45.31781" lon="5.75604">
        <ele>1692.6</ele>
        <time>2011-01-02T10:14:16.001Z</time>
      </trkpt>
      <trkpt lat="45.31786" lon="5.75601">
        <ele>1693.9</ele>
        <time>2011-01-02T10:14:21.001Z</time>
      </trkpt>
      <trkpt lat="45.31791" lon="5.75597">
        <ele>1695</ele>
        <time>2011-01-02T10:14:26.001Z</time>
      </trkpt>
      <trkpt lat="45.31796" lon="5.75594">
        <ele>1695.6</ele>
        <time>2011-01-02T10:14:31Z</time>
      </trkpt>
      <trkpt lat="45.31801" lon="5.75591">
        <ele>1695.8</ele>
        <time>2011-01-02T10:14:36.001Z</time>
      </trkpt>
      <trkpt lat="45.31806" lon="5.75588">
        <ele>1695.4</ele>
        <time>2011-01-02T10:14:41.001Z</time>
      </trkpt>
      <trkpt lat="45.3181" lon="5.75586">
        <ele>1694.4</ele>
        <time>2011-01-02T10:14:46.001Z</time>
      </trkpt>
      <trkpt lat="45.31815" lon="5.75585">
        <ele>1693.8</ele>
        <time>2011-01-02T10:14:50.998Z</time>
      </trkpt>
      <trkpt lat="45.31826" lon="5.75587">
        <ele>1692.2</ele>
        <time>2011-01-02T10:15:01.001Z</time>
      </trkpt>
      <trkpt lat="45.3183" lon="5.7559">
        <ele>1691.8</ele>
        <time>2011-01-02T10:15:06.001Z</time>
      </trkpt>
      <trkpt lat="45.31835" lon="5.75594">
        <ele>1693.1</ele>
        <time>2011-01-02T10:15:10.998Z</time>
      </trkpt>
      <trkpt lat="45.3184" lon="5.75598">
        <ele>1692.7</ele>
        <time>2011-01-02T10:15:16Z</time>
      </trkpt>
      <trkpt lat="45.31844" lon="5.75603">
        <ele>1692.3</ele>
        <time>2011-01-02T10:15:21.001Z</time>
      </trkpt>
      <trkpt lat="45.31849" lon="5.75608">
        <ele>1693.2</ele>
        <time>2011-01-02T10:15:25.997Z</time>
      </trkpt>
      <trkpt lat="45.31854" lon="5.75612">
        <ele>1694.1</ele>
        <time>2011-01-02T10:15:31.002Z</time>
      </trkpt>
      <trkpt lat="45.31859" lon="5.75616">
        <ele>1694</ele>
        <time>2011-01-02T10:15:36Z</time>
      </trkpt>
      <trkpt lat="45.31863" lon="5.7562">
        <ele>1693</ele>
        <time>2011-01-02T10:15:41Z</time>
      </trkpt>
      <trkpt lat="45.31868" lon="5.75624">
        <ele>1692.1</ele>
        <time>2011-01-02T10:15:46.005Z</time>
      </trkpt>
      <trkpt lat="45.31871" lon="5.75627">
        <ele>1692.3</ele>
        <time>2011-01-02T10:15:50.998Z</time>
      </trkpt>
      <trkpt lat="45.31876" lon="5.75632">
        <ele>1692.3</ele>
        <time>2011-01-02T10:15:56.001Z</time>
      </trkpt>
      <trkpt lat="45.31881" lon="5.75638">
        <ele>1692.5</ele>
        <time>2011-01-02T10:16:00.998Z</time>
      </trkpt>
      <trkpt lat="45.31883" lon="5.75649">
        <ele>1692.5</ele>
        <time>2011-01-02T10:16:06.002Z</time>
      </trkpt>
      <trkpt lat="45.31881" lon="5.75662">
        <ele>1686.2</ele>
        <time>2011-01-02T10:16:26.001Z</time>
      </trkpt>
      <trkpt lat="45.31882" lon="5.7567">
        <ele>1686</ele>
        <time>2011-01-02T10:16:31.001Z</time>
      </trkpt>
      <trkpt lat="45.31883" lon="5.75677">
        <ele>1685.7</ele>
        <time>2011-01-02T10:16:36.001Z</time>
      </trkpt>
      <trkpt lat="45.31884" lon="5.75684">
        <ele>1683.8</ele>
        <time>2011-01-02T10:16:41Z</time>
      </trkpt>
      <trkpt lat="45.31883" lon="5.75689">
        <ele>1680.7</ele>
        <time>2011-01-02T10:16:46Z</time>
      </trkpt>
      <trkpt lat="45.31883" lon="5.75695">
        <ele>1678.5</ele>
        <time>2011-01-02T10:16:51Z</time>
      </trkpt>
      <trkpt lat="45.31884" lon="5.75701">
        <ele>1676.8</ele>
        <time>2011-01-02T10:16:56Z</time>
      </trkpt>
      <trkpt lat="45.31886" lon="5.75725">
        <ele>1683.2</ele>
        <time>2011-01-02T10:19:50.998Z</time>
      </trkpt>
      <trkpt lat="45.31888" lon="5.75734">
        <ele>1681.3</ele>
        <time>2011-01-02T10:19:56.001Z</time>
      </trkpt>
      <trkpt lat="45.3189" lon="5.75741">
        <ele>1677.1</ele>
        <time>2011-01-02T10:20:01.001Z</time>
      </trkpt>
      <trkpt lat="45.31891" lon="5.75747">
        <ele>1674.9</ele>
        <time>2011-01-02T10:20:05.998Z</time>
      </trkpt>
      <trkpt lat="45.3189" lon="5.75751">
        <ele>1680</ele>
        <time>2011-01-02T10:20:56Z</time>
      </trkpt>
      <trkpt lat="45.31893" lon="5.75756">
        <ele>1679.6</ele>
        <time>2011-01-02T10:21:00.997Z</time>
      </trkpt>
      <trkpt lat="45.31898" lon="5.75765">
        <ele>1680.2</ele>
        <time>2011-01-02T10:21:06Z</time>
      </trkpt>
      <trkpt lat="45.31901" lon="5.75773">
        <ele>1681.1</ele>
        <time>2011-01-02T10:21:11.005Z</time>
      </trkpt>
      <trkpt lat="45.31904" lon="5.75782">
        <ele>1680</ele>
        <time>2011-01-02T10:21:20.998Z</time>
      </trkpt>
      <trkpt lat="45.31905" lon="5.75789">
        <ele>1681.1</ele>
        <time>2011-01-02T10:21:26.001Z</time>
      </trkpt>
      <trkpt lat="45.31907" lon="5.75797">
        <ele>1681.5</ele>
        <time>2011-01-02T10:21:31.001Z</time>
      </trkpt>
      <trkpt lat="45.3191" lon="5.75804">
        <ele>1681.6</ele>
        <time>2011-01-02T10:21:36.001Z</time>
      </trkpt>
      <trkpt lat="45.31913" lon="5.7581">
        <ele>1681.7</ele>
        <time>2011-01-02T10:21:41Z</time>
      </trkpt>
      <trkpt lat="45.31914" lon="5.75816">
        <ele>1682</ele>
        <time>2011-01-02T10:21:45.995Z</time>
      </trkpt>
      <trkpt lat="45.31915" lon="5.75822">
        <ele>1683.1</ele>
        <time>2011-01-02T10:21:51Z</time>
      </trkpt>
      <trkpt lat="45.31914" lon="5.75828">
        <ele>1684</ele>
        <time>2011-01-02T10:21:55.998Z</time>
      </trkpt>
      <trkpt lat="45.31909" lon="5.75837">
        <ele>1685.1</ele>
        <time>2011-01-02T10:22:00.997Z</time>
      </trkpt>
      <trkpt lat="45.31905" lon="5.75841">
        <ele>1686.2</ele>
        <time>2011-01-02T10:22:05.998Z</time>
      </trkpt>
      <trkpt lat="45.31898" lon="5.75848">
        <ele>1687.9</ele>
        <time>2011-01-02T10:22:20.998Z</time>
      </trkpt>
      <trkpt lat="45.31894" lon="5.75858">
        <ele>1681.2</ele>
        <time>2011-01-02T10:23:06.004Z</time>
      </trkpt>
      <trkpt lat="45.31892" lon="5.75862">
        <ele>1680.6</ele>
        <time>2011-01-02T10:23:11.004Z</time>
      </trkpt>
      <trkpt lat="45.3189" lon="5.75867">
        <ele>1681.3</ele>
        <time>2011-01-02T10:23:16.001Z</time>
      </trkpt>
      <trkpt lat="45.31888" lon="5.75869">
        <ele>1682.6</ele>
        <time>2011-01-02T10:23:21.001Z</time>
      </trkpt>
      <trkpt lat="45.31886" lon="5.75871">
        <ele>1684.2</ele>
        <time>2011-01-02T10:23:26.001Z</time>
      </trkpt>
      <trkpt lat="45.31884" lon="5.75876">
        <ele>1684.4</ele>
        <time>2011-01-02T10:23:31.001Z</time>
      </trkpt>
      <trkpt lat="45.31881" lon="5.75885">
        <ele>1685.9</ele>
        <time>2011-01-02T10:23:41.001Z</time>
      </trkpt>
      <trkpt lat="45.3188" lon="5.75893">
        <ele>1684.6</ele>
        <time>2011-01-02T10:23:51Z</time>
      </trkpt>
      <trkpt lat="45.3188" lon="5.75895">
        <ele>1682.1</ele>
        <time>2011-01-02T10:23:55.998Z</time>
      </trkpt>
      <trkpt lat="45.31882" lon="5.75895">
        <ele>1679.1</ele>
        <time>2011-01-02T10:24:01Z</time>
      </trkpt>
      <trkpt lat="45.31884" lon="5.75898">
        <ele>1677.1</ele>
        <time>2011-01-02T10:24:06Z</time>
      </trkpt>
      <trkpt lat="45.31888" lon="5.759">
        <ele>1677</ele>
        <time>2011-01-02T10:24:11Z</time>
      </trkpt>
      <trkpt lat="45.31895" lon="5.759">
        <ele>1675.6</ele>
        <time>2011-01-02T10:24:16Z</time>
      </trkpt>
      <trkpt lat="45.31905" lon="5.759">
        <ele>1670.5</ele>
        <time>2011-01-02T10:24:25.998Z</time>
      </trkpt>
      <trkpt lat="45.3191" lon="5.75901">
        <ele>1668.6</ele>
        <time>2011-01-02T10:24:31.001Z</time>
      </trkpt>
      <trkpt lat="45.31915" lon="5.75905">
        <ele>1667.9</ele>
        <time>2011-01-02T10:24:36.001Z</time>
      </trkpt>
      <trkpt lat="45.31919" lon="5.75909">
        <ele>1667</ele>
        <time>2011-01-02T10:24:41Z</time>
      </trkpt>
      <trkpt lat="45.31923" lon="5.75915">
        <ele>1665.9</ele>
        <time>2011-01-02T10:24:45.998Z</time>
      </trkpt>
      <trkpt lat="45.31925" lon="5.75919">
        <ele>1665.1</ele>
        <time>2011-01-02T10:24:51Z</time>
      </trkpt>
      <trkpt lat="45.31927" lon="5.75923">
        <ele>1664.9</ele>
        <time>2011-01-02T10:24:56.001Z</time>
      </trkpt>
      <trkpt lat="45.3193" lon="5.75929">
        <ele>1666.2</ele>
        <time>2011-01-02T10:25:00.998Z</time>
      </trkpt>
      <trkpt lat="45.31931" lon="5.75936">
        <ele>1669.1</ele>
        <time>2011-01-02T10:25:06.004Z</time>
      </trkpt>
      <trkpt lat="45.31932" lon="5.75942">
        <ele>1672.2</ele>
        <time>2011-01-02T10:25:11Z</time>
      </trkpt>
      <trkpt lat="45.31931" lon="5.7595">
        <ele>1674.8</ele>
        <time>2011-01-02T10:25:16Z</time>
      </trkpt>
      <trkpt lat="45.3193" lon="5.75957">
        <ele>1678.1</ele>
        <time>2011-01-02T10:25:26Z</time>
      </trkpt>
      <trkpt lat="45.31929" lon="5.75962">
        <ele>1680.1</ele>
        <time>2011-01-02T10:25:30.998Z</time>
      </trkpt>
      <trkpt lat="45.31926" lon="5.75969">
        <ele>1682.1</ele>
        <time>2011-01-02T10:25:40.998Z</time>
      </trkpt>
      <trkpt lat="45.31923" lon="5.75976">
        <ele>1683.6</ele>
        <time>2011-01-02T10:25:46Z</time>
      </trkpt>
      <trkpt lat="45.31921" lon="5.75981">
        <ele>1685.1</ele>
        <time>2011-01-02T10:25:50.998Z</time>
      </trkpt>
      <trkpt lat="45.31917" lon="5.75989">
        <ele>1686.7</ele>
        <time>2011-01-02T10:25:55.995Z</time>
      </trkpt>
      <trkpt lat="45.31914" lon="5.75996">
        <ele>1686.5</ele>
        <time>2011-01-02T10:26:06.001Z</time>
      </trkpt>
      <trkpt lat="45.3191" lon="5.76003">
        <ele>1685.6</ele>
        <time>2011-01-02T10:26:16.001Z</time>
      </trkpt>
      <trkpt lat="45.31908" lon="5.76008">
        <ele>1685.5</ele>
        <time>2011-01-02T10:26:20.998Z</time>
      </trkpt>
      <trkpt lat="45.31906" lon="5.76013">
        <ele>1687.2</ele>
        <time>2011-01-02T10:26:25.998Z</time>
      </trkpt>
      <trkpt lat="45.31901" lon="5.76022">
        <ele>1688.3</ele>
        <time>2011-01-02T10:26:41Z</time>
      </trkpt>
      <trkpt lat="45.31902" lon="5.76023">
        <ele>1685.6</ele>
        <time>2011-01-02T10:26:46Z</time>
      </trkpt>
      <trkpt lat="45.31901" lon="5.76023">
        <ele>1686.3</ele>
        <time>2011-01-02T10:26:51Z</time>
      </trkpt>
      <trkpt lat="45.31897" lon="5.76023">
        <ele>1689.9</ele>
        <time>2011-01-02T10:27:01Z</time>
      </trkpt>
      <trkpt lat="45.31895" lon="5.76023">
        <ele>1691.7</ele>
        <time>2011-01-02T10:27:06Z</time>
      </trkpt>
      <trkpt lat="45.31886" lon="5.7603">
        <ele>1699.1</ele>
        <time>2011-01-02T10:27:45.998Z</time>
      </trkpt>
      <trkpt lat="45.31884" lon="5.76035">
        <ele>1698.8</ele>
        <time>2011-01-02T10:27:51Z</time>
      </trkpt>
      <trkpt lat="45.31887" lon="5.76035">
        <ele>1690.4</ele>
        <time>2011-01-02T10:28:21Z</time>
      </trkpt>
      <trkpt lat="45.31906" lon="5.76046">
        <ele>1696.3</ele>
        <time>2011-01-02T10:29:10.998Z</time>
      </trkpt>
      <trkpt lat="45.31912" lon="5.76046">
        <ele>1696.6</ele>
        <time>2011-01-02T10:29:21.004Z</time>
      </trkpt>
      <trkpt lat="45.31918" lon="5.76045">
        <ele>1692.4</ele>
        <time>2011-01-02T10:29:31.002Z</time>
      </trkpt>
      <trkpt lat="45.31922" lon="5.76047">
        <ele>1685.7</ele>
        <time>2011-01-02T10:29:41Z</time>
      </trkpt>
      <trkpt lat="45.31925" lon="5.76047">
        <ele>1682.7</ele>
        <time>2011-01-02T10:29:46Z</time>
      </trkpt>
      <trkpt lat="45.31931" lon="5.76045">
        <ele>1679.2</ele>
        <time>2011-01-02T10:29:56Z</time>
      </trkpt>
      <trkpt lat="45.31934" lon="5.76045">
        <ele>1676.8</ele>
        <time>2011-01-02T10:30:06.001Z</time>
      </trkpt>
      <trkpt lat="45.31937" lon="5.76046">
        <ele>1677.8</ele>
        <time>2011-01-02T10:30:10.998Z</time>
      </trkpt>
      <trkpt lat="45.31944" lon="5.76053">
        <ele>1690.3</ele>
        <time>2011-01-02T10:30:30.998Z</time>
      </trkpt>
      <trkpt lat="45.3195" lon="5.76055">
        <ele>1691.8</ele>
        <time>2011-01-02T10:30:41Z</time>
      </trkpt>
      <trkpt lat="45.31954" lon="5.76059">
        <ele>1690.5</ele>
        <time>2011-01-02T10:30:51.001Z</time>
      </trkpt>
      <trkpt lat="45.31955" lon="5.76062">
        <ele>1688.5</ele>
        <time>2011-01-02T10:30:56.001Z</time>
      </trkpt>
      <trkpt lat="45.3196" lon="5.76064">
        <ele>1682.6</ele>
        <time>2011-01-02T10:31:10.998Z</time>
      </trkpt>
      <trkpt lat="45.31965" lon="5.76064">
        <ele>1682.5</ele>
        <time>2011-01-02T10:31:16.001Z</time>
      </trkpt>
      <trkpt lat="45.31967" lon="5.76066">
        <ele>1681.6</ele>
        <time>2011-01-02T10:31:20.998Z</time>
      </trkpt>
      <trkpt lat="45.31969" lon="5.7607">
        <ele>1680.6</ele>
        <time>2011-01-02T10:31:26Z</time>
      </trkpt>
      <trkpt lat="45.31979" lon="5.7607">
        <ele>1677.6</ele>
        <time>2011-01-02T10:31:40.998Z</time>
      </trkpt>
      <trkpt lat="45.31984" lon="5.76071">
        <ele>1679</ele>
        <time>2011-01-02T10:31:51Z</time>
      </trkpt>
      <trkpt lat="45.31987" lon="5.76071">
        <ele>1678.3</ele>
        <time>2011-01-02T10:31:56Z</time>
      </trkpt>
      <trkpt lat="45.31992" lon="5.76074">
        <ele>1676.1</ele>
        <time>2011-01-02T10:32:01Z</time>
      </trkpt>
      <trkpt lat="45.31996" lon="5.76076">
        <ele>1673.8</ele>
        <time>2011-01-02T10:32:05.998Z</time>
      </trkpt>
      <trkpt lat="45.31998" lon="5.76077">
        <ele>1671.6</ele>
        <time>2011-01-02T10:32:11.001Z</time>
      </trkpt>
      <trkpt lat="45.31999" lon="5.76077">
        <ele>1670.7</ele>
        <time>2011-01-02T10:32:15.998Z</time>
      </trkpt>
      <trkpt lat="45.32" lon="5.76076">
        <ele>1670</ele>
        <time>2011-01-02T10:32:21Z</time>
      </trkpt>
      <trkpt lat="45.32005" lon="5.76085">
        <ele>1670.6</ele>
        <time>2011-01-02T10:32:46Z</time>
      </trkpt>
      <trkpt lat="45.32006" lon="5.76088">
        <ele>1672</ele>
        <time>2011-01-02T10:32:50.998Z</time>
      </trkpt>
      <trkpt lat="45.32005" lon="5.76101">
        <ele>1675.4</ele>
        <time>2011-01-02T10:33:00.998Z</time>
      </trkpt>
      <trkpt lat="45.32004" lon="5.76109">
        <ele>1677.6</ele>
        <time>2011-01-02T10:33:05.997Z</time>
      </trkpt>
      <trkpt lat="45.32002" lon="5.76116">
        <ele>1679.1</ele>
        <time>2011-01-02T10:33:11Z</time>
      </trkpt>
      <trkpt lat="45.32001" lon="5.76123">
        <ele>1681.7</ele>
        <time>2011-01-02T10:33:16Z</time>
      </trkpt>
      <trkpt lat="45.32004" lon="5.76125">
        <ele>1683.3</ele>
        <time>2011-01-02T10:33:25.998Z</time>
      </trkpt>
      <trkpt lat="45.32005" lon="5.76125">
        <ele>1683.8</ele>
        <time>2011-01-02T10:33:31.001Z</time>
      </trkpt>
      <trkpt lat="45.32011" lon="5.76125">
        <ele>1685.1</ele>
        <time>2011-01-02T10:33:40.998Z</time>
      </trkpt>
      <trkpt lat="45.32023" lon="5.76127">
        <ele>1684.6</ele>
        <time>2011-01-02T10:34:01.002Z</time>
      </trkpt>
      <trkpt lat="45.32026" lon="5.76128">
        <ele>1684.8</ele>
        <time>2011-01-02T10:34:06Z</time>
      </trkpt>
      <trkpt lat="45.32032" lon="5.76128">
        <ele>1683.5</ele>
        <time>2011-01-02T10:34:21.001Z</time>
      </trkpt>
      <trkpt lat="45.32041" lon="5.7613">
        <ele>1687.3</ele>
        <time>2011-01-02T10:34:41.004Z</time>
      </trkpt>
      <trkpt lat="45.32047" lon="5.76135">
        <ele>1690.6</ele>
        <time>2011-01-02T10:34:56.005Z</time>
      </trkpt>
      <trkpt lat="45.3205" lon="5.76138">
        <ele>1691.7</ele>
        <time>2011-01-02T10:35:06.001Z</time>
      </trkpt>
      <trkpt lat="45.32056" lon="5.76141">
        <ele>1696</ele>
        <time>2011-01-02T10:35:16.005Z</time>
      </trkpt>
      <trkpt lat="45.32058" lon="5.76143">
        <ele>1699.2</ele>
        <time>2011-01-02T10:35:21Z</time>
      </trkpt>
      <trkpt lat="45.32061" lon="5.76146">
        <ele>1701.4</ele>
        <time>2011-01-02T10:35:26.001Z</time>
      </trkpt>
      <trkpt lat="45.32071" lon="5.76143">
        <ele>1704.6</ele>
        <time>2011-01-02T10:35:45.997Z</time>
      </trkpt>
      <trkpt lat="45.32082" lon="5.76144">
        <ele>1710.1</ele>
        <time>2011-01-02T10:36:10.998Z</time>
      </trkpt>
      <trkpt lat="45.32084" lon="5.76148">
        <ele>1712.1</ele>
        <time>2011-01-02T10:36:15.995Z</time>
      </trkpt>
      <trkpt lat="45.3209" lon="5.76151">
        <ele>1715.3</ele>
        <time>2011-01-02T10:36:31Z</time>
      </trkpt>
      <trkpt lat="45.32094" lon="5.76151">
        <ele>1715.6</ele>
        <time>2011-01-02T10:36:41Z</time>
      </trkpt>
      <trkpt lat="45.32101" lon="5.76127">
        <ele>1756.2</ele>
        <time>2011-01-02T10:37:06Z</time>
      </trkpt>
      <trkpt lat="45.32105" lon="5.76123">
        <ele>1762.8</ele>
        <time>2011-01-02T10:37:16Z</time>
      </trkpt>
      <trkpt lat="45.32109" lon="5.76122">
        <ele>1763.5</ele>
        <time>2011-01-02T10:37:21.001Z</time>
      </trkpt>
      <trkpt lat="45.32112" lon="5.76122">
        <ele>1764.1</ele>
        <time>2011-01-02T10:37:26Z</time>
      </trkpt>
      <trkpt lat="45.32136" lon="5.7613">
        <ele>1764.6</ele>
        <time>2011-01-02T10:38:20.997Z</time>
      </trkpt>
      <trkpt lat="45.32139" lon="5.76132">
        <ele>1764</ele>
        <time>2011-01-02T10:38:26Z</time>
      </trkpt>
      <trkpt lat="45.32141" lon="5.76135">
        <ele>1762.4</ele>
        <time>2011-01-02T10:38:31Z</time>
      </trkpt>
      <trkpt lat="45.32143" lon="5.76137">
        <ele>1761.5</ele>
        <time>2011-01-02T10:38:36.001Z</time>
      </trkpt>
      <trkpt lat="45.32145" lon="5.76143">
        <ele>1760.6</ele>
        <time>2011-01-02T10:38:51.002Z</time>
      </trkpt>
      <trkpt lat="45.32147" lon="5.76144">
        <ele>1759.9</ele>
        <time>2011-01-02T10:38:55.998Z</time>
      </trkpt>
      <trkpt lat="45.32163" lon="5.76157">
        <ele>1753.3</ele>
        <time>2011-01-02T10:39:41.002Z</time>
      </trkpt>
      <trkpt lat="45.32168" lon="5.7616">
        <ele>1750.8</ele>
        <time>2011-01-02T10:39:56Z</time>
      </trkpt>
      <trkpt lat="45.32176" lon="5.76161">
        <ele>1751.9</ele>
        <time>2011-01-02T10:40:16.004Z</time>
      </trkpt>
      <trkpt lat="45.32178" lon="5.76163">
        <ele>1752.1</ele>
        <time>2011-01-02T10:40:31.001Z</time>
      </trkpt>
      <trkpt lat="45.32179" lon="5.76166">
        <ele>1750.7</ele>
        <time>2011-01-02T10:40:56.001Z</time>
      </trkpt>
      <trkpt lat="45.3218" lon="5.76167">
        <ele>1749.3</ele>
        <time>2011-01-02T10:41:06Z</time>
      </trkpt>
      <trkpt lat="45.32186" lon="5.76168">
        <ele>1748</ele>
        <time>2011-01-02T10:41:21Z</time>
      </trkpt>
      <trkpt lat="45.32188" lon="5.76173">
        <ele>1749.6</ele>
        <time>2011-01-02T10:42:31Z</time>
      </trkpt>
      <trkpt lat="45.32191" lon="5.76181">
        <ele>1750.7</ele>
        <time>2011-01-02T10:42:41.001Z</time>
      </trkpt>
      <trkpt lat="45.32194" lon="5.7619">
        <ele>1755.3</ele>
        <time>2011-01-02T10:42:50.998Z</time>
      </trkpt>
      <trkpt lat="45.32195" lon="5.76195">
        <ele>1757</ele>
        <time>2011-01-02T10:42:56Z</time>
      </trkpt>
      <trkpt lat="45.32196" lon="5.762">
        <ele>1758</ele>
        <time>2011-01-02T10:43:01.001Z</time>
      </trkpt>
      <trkpt lat="45.32197" lon="5.76205">
        <ele>1759.2</ele>
        <time>2011-01-02T10:43:06.001Z</time>
      </trkpt>
      <trkpt lat="45.32199" lon="5.76209">
        <ele>1760.5</ele>
        <time>2011-01-02T10:43:11Z</time>
      </trkpt>
      <trkpt lat="45.32201" lon="5.76213">
        <ele>1762.4</ele>
        <time>2011-01-02T10:43:16Z</time>
      </trkpt>
      <trkpt lat="45.32206" lon="5.76222">
        <ele>1772.7</ele>
        <time>2011-01-02T10:43:46.001Z</time>
      </trkpt>
      <trkpt lat="45.32208" lon="5.76223">
        <ele>1773</ele>
        <time>2011-01-02T10:43:51Z</time>
      </trkpt>
      <trkpt lat="45.32214" lon="5.76237">
        <ele>1789.4</ele>
        <time>2011-01-02T10:44:56Z</time>
      </trkpt>
      <trkpt lat="45.32222" lon="5.76243">
        <ele>1796.2</ele>
        <time>2011-01-02T10:45:51.001Z</time>
      </trkpt>
      <trkpt lat="45.32224" lon="5.76245">
        <ele>1795.2</ele>
        <time>2011-01-02T10:45:55.997Z</time>
      </trkpt>
      <trkpt lat="45.32244" lon="5.76211">
        <ele>1804.8</ele>
        <time>2011-01-02T10:50:21.001Z</time>
      </trkpt>
      <trkpt lat="45.32258" lon="5.76209">
        <ele>1806.8</ele>
        <time>2011-01-02T10:51:01Z</time>
      </trkpt>
      <trkpt lat="45.32261" lon="5.76207">
        <ele>1807.3</ele>
        <time>2011-01-02T10:51:11Z</time>
      </trkpt>
      <trkpt lat="45.32266" lon="5.76206">
        <ele>1804.9</ele>
        <time>2011-01-02T10:51:20.998Z</time>
      </trkpt>
      <trkpt lat="45.32276" lon="5.76206">
        <ele>1800.1</ele>
        <time>2011-01-02T10:52:26Z</time>
      </trkpt>
      <trkpt lat="45.32276" lon="5.76204">
        <ele>1799.9</ele>
        <time>2011-01-02T10:53:31Z</time>
      </trkpt>
      <trkpt lat="45.32283" lon="5.76203">
        <ele>1803.9</ele>
        <time>2011-01-02T10:56:31.001Z</time>
      </trkpt>
      <trkpt lat="45.32278" lon="5.76207">
        <ele>1805.5</ele>
        <time>2011-01-02T10:56:35.994Z</time>
      </trkpt>
      <trkpt lat="45.32279" lon="5.76193">
        <ele>1816.8</ele>
        <time>2011-01-02T10:59:01.001Z</time>
      </trkpt>
      <trkpt lat="45.32278" lon="5.76195">
        <ele>1819.3</ele>
        <time>2011-01-02T11:05:41Z</time>
      </trkpt>
      <trkpt lat="45.32279" lon="5.76197">
        <ele>1836.2</ele>
        <time>2011-01-02T11:11:16.001Z</time>
      </trkpt>
      <trkpt lat="45.32279" lon="5.76197">
        <ele>1835.5</ele>
        <time>2011-01-02T11:11:26Z</time>
      </trkpt>
      <trkpt lat="45.32281" lon="5.76194">
        <ele>1834</ele>
        <time>2011-01-02T11:12:26Z</time>
      </trkpt>
      <trkpt lat="45.3228" lon="5.76192">
        <ele>1831.3</ele>
        <time>2011-01-02T11:13:16.001Z</time>
      </trkpt>
      <trkpt lat="45.32279" lon="5.76193">
        <ele>1833.3</ele>
        <time>2011-01-02T11:13:30.998Z</time>
      </trkpt>
      <trkpt lat="45.32275" lon="5.76197">
        <ele>1846.7</ele>
        <time>2011-01-02T11:14:41.002Z</time>
      </trkpt>
      <trkpt lat="45.32276" lon="5.76193">
        <ele>1839.4</ele>
        <time>2011-01-02T11:15:51.001Z</time>
      </trkpt>
      <trkpt lat="45.32277" lon="5.76191">
        <ele>1842.3</ele>
        <time>2011-01-02T11:18:11.001Z</time>
      </trkpt>
      <trkpt lat="45.32279" lon="5.76192">
        <ele>1833.8</ele>
        <time>2011-01-02T11:21:01.002Z</time>
      </trkpt>
      <trkpt lat="45.32279" lon="5.76194">
        <ele>1835.2</ele>
        <time>2011-01-02T11:21:16Z</time>
      </trkpt>
      <trkpt lat="45.32276" lon="5.76192">
        <ele>1842.5</ele>
        <time>2011-01-02T11:23:51.001Z</time>
      </trkpt>
      <trkpt lat="45.32276" lon="5.76192">
        <ele>1842.4</ele>
        <time>2011-01-02T11:23:55.998Z</time>
      </trkpt>
      <trkpt lat="45.32277" lon="5.7619">
        <ele>1838.1</ele>
        <time>2011-01-02T11:25:11.001Z</time>
      </trkpt>
      <trkpt lat="45.32279" lon="5.76185">
        <ele>1846.2</ele>
        <time>2011-01-02T11:30:40.998Z</time>
      </trkpt>
      <trkpt lat="45.32277" lon="5.76187">
        <ele>1846.4</ele>
        <time>2011-01-02T11:30:50.994Z</time>
      </trkpt>
      <trkpt lat="45.32267" lon="5.76183">
        <ele>1835.4</ele>
        <time>2011-01-02T11:37:31Z</time>
      </trkpt>
      <trkpt lat="45.3226" lon="5.76182">
        <ele>1834.6</ele>
        <time>2011-01-02T11:37:36.001Z</time>
      </trkpt>
      <trkpt lat="45.32255" lon="5.76185">
        <ele>1833</ele>
        <time>2011-01-02T11:37:41.001Z</time>
      </trkpt>
      <trkpt lat="45.32255" lon="5.76195">
        <ele>1830.6</ele>
        <time>2011-01-02T11:37:51Z</time>
      </trkpt>
      <trkpt lat="45.32246" lon="5.76198">
        <ele>1829.1</ele>
        <time>2011-01-02T11:37:56.001Z</time>
      </trkpt>
      <trkpt lat="45.32244" lon="5.76203">
        <ele>1828.9</ele>
        <time>2011-01-02T11:38:06Z</time>
      </trkpt>
      <trkpt lat="45.32241" lon="5.76206">
        <ele>1829</ele>
        <time>2011-01-02T11:38:10.998Z</time>
      </trkpt>
      <trkpt lat="45.3223" lon="5.76201">
        <ele>1827.5</ele>
        <time>2011-01-02T11:38:16.001Z</time>
      </trkpt>
      <trkpt lat="45.32224" lon="5.76196">
        <ele>1824.8</ele>
        <time>2011-01-02T11:38:21Z</time>
      </trkpt>
      <trkpt lat="45.32209" lon="5.76189">
        <ele>1819.7</ele>
        <time>2011-01-02T11:38:26Z</time>
      </trkpt>
      <trkpt lat="45.32201" lon="5.7618">
        <ele>1813.2</ele>
        <time>2011-01-02T11:38:31.001Z</time>
      </trkpt>
      <trkpt lat="45.32195" lon="5.76165">
        <ele>1797.9</ele>
        <time>2011-01-02T11:38:46.001Z</time>
      </trkpt>
      <trkpt lat="45.32192" lon="5.76156">
        <ele>1793</ele>
        <time>2011-01-02T11:39:00.997Z</time>
      </trkpt>
      <trkpt lat="45.32177" lon="5.76138">
        <ele>1785.8</ele>
        <time>2011-01-02T11:39:51.001Z</time>
      </trkpt>
      <trkpt lat="45.32157" lon="5.76137">
        <ele>1785.6</ele>
        <time>2011-01-02T11:39:56Z</time>
      </trkpt>
      <trkpt lat="45.32131" lon="5.76135">
        <ele>1785.1</ele>
        <time>2011-01-02T11:40:01.001Z</time>
      </trkpt>
      <trkpt lat="45.32115" lon="5.76118">
        <ele>1784.9</ele>
        <time>2011-01-02T11:40:05.998Z</time>
      </trkpt>
      <trkpt lat="45.32109" lon="5.76111">
        <ele>1787.3</ele>
        <time>2011-01-02T11:41:51Z</time>
      </trkpt>
      <trkpt lat="45.32102" lon="5.76113">
        <ele>1786.1</ele>
        <time>2011-01-02T11:41:56Z</time>
      </trkpt>
      <trkpt lat="45.32092" lon="5.76109">
        <ele>1782.2</ele>
        <time>2011-01-02T11:42:01.001Z</time>
      </trkpt>
      <trkpt lat="45.32074" lon="5.76114">
        <ele>1778</ele>
        <time>2011-01-02T11:42:05.998Z</time>
      </trkpt>
      <trkpt lat="45.32053" lon="5.7612">
        <ele>1769.5</ele>
        <time>2011-01-02T11:42:11.001Z</time>
      </trkpt>
      <trkpt lat="45.3203" lon="5.76105">
        <ele>1739.6</ele>
        <time>2011-01-02T11:42:31.001Z</time>
      </trkpt>
      <trkpt lat="45.32016" lon="5.76102">
        <ele>1735.6</ele>
        <time>2011-01-02T11:42:35.998Z</time>
      </trkpt>
      <trkpt lat="45.31993" lon="5.76112">
        <ele>1731.2</ele>
        <time>2011-01-02T11:42:41Z</time>
      </trkpt>
      <trkpt lat="45.31969" lon="5.76114">
        <ele>1724.7</ele>
        <time>2011-01-02T11:42:45.998Z</time>
      </trkpt>
      <trkpt lat="45.31951" lon="5.76105">
        <ele>1717.7</ele>
        <time>2011-01-02T11:42:50.998Z</time>
      </trkpt>
      <trkpt lat="45.31942" lon="5.76077">
        <ele>1711.6</ele>
        <time>2011-01-02T11:43:15.998Z</time>
      </trkpt>
      <trkpt lat="45.3195" lon="5.76062">
        <ele>1709.6</ele>
        <time>2011-01-02T11:43:21Z</time>
      </trkpt>
      <trkpt lat="45.31964" lon="5.76044">
        <ele>1707.7</ele>
        <time>2011-01-02T11:43:25.998Z</time>
      </trkpt>
      <trkpt lat="45.31981" lon="5.76027">
        <ele>1704.3</ele>
        <time>2011-01-02T11:43:31Z</time>
      </trkpt>
      <trkpt lat="45.31991" lon="5.7601">
        <ele>1701.4</ele>
        <time>2011-01-02T11:43:36.001Z</time>
      </trkpt>
      <trkpt lat="45.32" lon="5.75994">
        <ele>1698.6</ele>
        <time>2011-01-02T11:43:40.998Z</time>
      </trkpt>
      <trkpt lat="45.32009" lon="5.75966">
        <ele>1697.1</ele>
        <time>2011-01-02T11:43:46Z</time>
      </trkpt>
      <trkpt lat="45.32021" lon="5.75925">
        <ele>1695</ele>
        <time>2011-01-02T11:43:51.001Z</time>
      </trkpt>
      <trkpt lat="45.32013" lon="5.75889">
        <ele>1687.4</ele>
        <time>2011-01-02T11:43:56Z</time>
      </trkpt>
      <trkpt lat="45.32" lon="5.75868">
        <ele>1673.8</ele>
        <time>2011-01-02T11:44:01.001Z</time>
      </trkpt>
      <trkpt lat="45.31963" lon="5.75866">
        <ele>1644.4</ele>
        <time>2011-01-02T11:44:41Z</time>
      </trkpt>
      <trkpt lat="45.31955" lon="5.75861">
        <ele>1642.1</ele>
        <time>2011-01-02T11:44:45.998Z</time>
      </trkpt>
      <trkpt lat="45.31948" lon="5.75856">
        <ele>1641</ele>
        <time>2011-01-02T11:44:51.001Z</time>
      </trkpt>
      <trkpt lat="45.31936" lon="5.7584">
        <ele>1639.9</ele>
        <time>2011-01-02T11:44:56.001Z</time>
      </trkpt>
      <trkpt lat="45.31926" lon="5.75817">
        <ele>1640.4</ele>
        <time>2011-01-02T11:45:01Z</time>
      </trkpt>
      <trkpt lat="45.31919" lon="5.75792">
        <ele>1642</ele>
        <time>2011-01-02T11:45:05.998Z</time>
      </trkpt>
      <trkpt lat="45.31909" lon="5.75773">
        <ele>1643.4</ele>
        <time>2011-01-02T11:45:10.998Z</time>
      </trkpt>
      <trkpt lat="45.31905" lon="5.75761">
        <ele>1645.8</ele>
        <time>2011-01-02T11:45:16.001Z</time>
      </trkpt>
      <trkpt lat="45.31902" lon="5.75747">
        <ele>1647.7</ele>
        <time>2011-01-02T11:45:21.001Z</time>
      </trkpt>
      <trkpt lat="45.31898" lon="5.75727">
        <ele>1652</ele>
        <time>2011-01-02T11:45:25.997Z</time>
      </trkpt>
      <trkpt lat="45.31897" lon="5.75711">
        <ele>1655.4</ele>
        <time>2011-01-02T11:45:31.001Z</time>
      </trkpt>
      <trkpt lat="45.31895" lon="5.75695">
        <ele>1657.5</ele>
        <time>2011-01-02T11:45:35.998Z</time>
      </trkpt>
      <trkpt lat="45.3189" lon="5.75677">
        <ele>1657.4</ele>
        <time>2011-01-02T11:45:41Z</time>
      </trkpt>
      <trkpt lat="45.31887" lon="5.75657">
        <ele>1656.2</ele>
        <time>2011-01-02T11:45:46Z</time>
      </trkpt>
      <trkpt lat="45.31883" lon="5.75639">
        <ele>1655.5</ele>
        <time>2011-01-02T11:45:51.001Z</time>
      </trkpt>
      <trkpt lat="45.31879" lon="5.75628">
        <ele>1655.2</ele>
        <time>2011-01-02T11:45:56Z</time>
      </trkpt>
      <trkpt lat="45.31874" lon="5.75619">
        <ele>1654.5</ele>
        <time>2011-01-02T11:46:01.001Z</time>
      </trkpt>
      <trkpt lat="45.31869" lon="5.75613">
        <ele>1654.5</ele>
        <time>2011-01-02T11:46:05.998Z</time>
      </trkpt>
      <trkpt lat="45.31864" lon="5.75606">
        <ele>1654</ele>
        <time>2011-01-02T11:46:11.001Z</time>
      </trkpt>
      <trkpt lat="45.31858" lon="5.75601">
        <ele>1651.4</ele>
        <time>2011-01-02T11:46:15.998Z</time>
      </trkpt>
      <trkpt lat="45.31855" lon="5.75599">
        <ele>1648.2</ele>
        <time>2011-01-02T11:46:20.998Z</time>
      </trkpt>
      <trkpt lat="45.3185" lon="5.75593">
        <ele>1658.9</ele>
        <time>2011-01-02T11:47:11Z</time>
      </trkpt>
      <trkpt lat="45.31844" lon="5.75585">
        <ele>1658.9</ele>
        <time>2011-01-02T11:47:15.998Z</time>
      </trkpt>
      <trkpt lat="45.31837" lon="5.75578">
        <ele>1658.5</ele>
        <time>2011-01-02T11:47:21Z</time>
      </trkpt>
      <trkpt lat="45.31826" lon="5.75569">
        <ele>1657.1</ele>
        <time>2011-01-02T11:47:26Z</time>
      </trkpt>
      <trkpt lat="45.31813" lon="5.75562">
        <ele>1654.3</ele>
        <time>2011-01-02T11:47:31Z</time>
      </trkpt>
      <trkpt lat="45.31801" lon="5.75564">
        <ele>1651.7</ele>
        <time>2011-01-02T11:47:36Z</time>
      </trkpt>
      <trkpt lat="45.31783" lon="5.75573">
        <ele>1648.6</ele>
        <time>2011-01-02T11:47:41.001Z</time>
      </trkpt>
      <trkpt lat="45.31763" lon="5.75586">
        <ele>1644.3</ele>
        <time>2011-01-02T11:47:46Z</time>
      </trkpt>
      <trkpt lat="45.31742" lon="5.75576">
        <ele>1640.2</ele>
        <time>2011-01-02T11:47:51Z</time>
      </trkpt>
      <trkpt lat="45.31727" lon="5.75556">
        <ele>1637.1</ele>
        <time>2011-01-02T11:47:56Z</time>
      </trkpt>
      <trkpt lat="45.31716" lon="5.75545">
        <ele>1634.9</ele>
        <time>2011-01-02T11:48:01.001Z</time>
      </trkpt>
      <trkpt lat="45.31702" lon="5.7554">
        <ele>1633.6</ele>
        <time>2011-01-02T11:48:06.002Z</time>
      </trkpt>
      <trkpt lat="45.31685" lon="5.75527">
        <ele>1633.3</ele>
        <time>2011-01-02T11:48:10.998Z</time>
      </trkpt>
      <trkpt lat="45.31672" lon="5.75514">
        <ele>1633.9</ele>
        <time>2011-01-02T11:48:16.001Z</time>
      </trkpt>
      <trkpt lat="45.31662" lon="5.75502">
        <ele>1633.5</ele>
        <time>2011-01-02T11:48:21.001Z</time>
      </trkpt>
      <trkpt lat="45.31656" lon="5.75492">
        <ele>1631.9</ele>
        <time>2011-01-02T11:48:26.001Z</time>
      </trkpt>
      <trkpt lat="45.31647" lon="5.7548">
        <ele>1629.5</ele>
        <time>2011-01-02T11:48:31.001Z</time>
      </trkpt>
      <trkpt lat="45.31638" lon="5.75464">
        <ele>1626.4</ele>
        <time>2011-01-02T11:48:36.001Z</time>
      </trkpt>
      <trkpt lat="45.31628" lon="5.75454">
        <ele>1623.2</ele>
        <time>2011-01-02T11:48:40.998Z</time>
      </trkpt>
      <trkpt lat="45.31619" lon="5.75445">
        <ele>1622.1</ele>
        <time>2011-01-02T11:48:46.001Z</time>
      </trkpt>
      <trkpt lat="45.31608" lon="5.7544">
        <ele>1620.5</ele>
        <time>2011-01-02T11:48:51.001Z</time>
      </trkpt>
      <trkpt lat="45.31593" lon="5.75433">
        <ele>1618.7</ele>
        <time>2011-01-02T11:48:56.002Z</time>
      </trkpt>
      <trkpt lat="45.31576" lon="5.75427">
        <ele>1617.9</ele>
        <time>2011-01-02T11:49:01Z</time>
      </trkpt>
      <trkpt lat="45.31558" lon="5.75421">
        <ele>1617.7</ele>
        <time>2011-01-02T11:49:05.998Z</time>
      </trkpt>
      <trkpt lat="45.3154" lon="5.75411">
        <ele>1618.2</ele>
        <time>2011-01-02T11:49:11.001Z</time>
      </trkpt>
      <trkpt lat="45.31522" lon="5.75397">
        <ele>1617.1</ele>
        <time>2011-01-02T11:49:16.001Z</time>
      </trkpt>
      <trkpt lat="45.31506" lon="5.75385">
        <ele>1613.6</ele>
        <time>2011-01-02T11:49:21.002Z</time>
      </trkpt>
      <trkpt lat="45.3149" lon="5.7538">
        <ele>1608.9</ele>
        <time>2011-01-02T11:49:26Z</time>
      </trkpt>
      <trkpt lat="45.31477" lon="5.75379">
        <ele>1603.8</ele>
        <time>2011-01-02T11:49:31.001Z</time>
      </trkpt>
      <trkpt lat="45.3146" lon="5.75376">
        <ele>1599</ele>
        <time>2011-01-02T11:49:36.001Z</time>
      </trkpt>
      <trkpt lat="45.3145" lon="5.75371">
        <ele>1596</ele>
        <time>2011-01-02T11:49:41Z</time>
      </trkpt>
      <trkpt lat="45.31437" lon="5.75373">
        <ele>1631.2</ele>
        <time>2011-01-02T11:51:36.001Z</time>
      </trkpt>
      <trkpt lat="45.31431" lon="5.75374">
        <ele>1629.5</ele>
        <time>2011-01-02T11:51:41.001Z</time>
      </trkpt>
      <trkpt lat="45.31425" lon="5.75374">
        <ele>1626.8</ele>
        <time>2011-01-02T11:51:45.998Z</time>
      </trkpt>
      <trkpt lat="45.31413" lon="5.75373">
        <ele>1626.6</ele>
        <time>2011-01-02T11:51:50.998Z</time>
      </trkpt>
      <trkpt lat="45.31395" lon="5.75371">
        <ele>1628.1</ele>
        <time>2011-01-02T11:51:56.001Z</time>
      </trkpt>
      <trkpt lat="45.31378" lon="5.7537">
        <ele>1628.8</ele>
        <time>2011-01-02T11:52:01.002Z</time>
      </trkpt>
      <trkpt lat="45.31362" lon="5.7537">
        <ele>1629.7</ele>
        <time>2011-01-02T11:52:05.998Z</time>
      </trkpt>
      <trkpt lat="45.31343" lon="5.75373">
        <ele>1629.6</ele>
        <time>2011-01-02T11:52:11Z</time>
      </trkpt>
      <trkpt lat="45.31325" lon="5.75385">
        <ele>1629.9</ele>
        <time>2011-01-02T11:52:15.998Z</time>
      </trkpt>
      <trkpt lat="45.31315" lon="5.75394">
        <ele>1631</ele>
        <time>2011-01-02T11:52:21.001Z</time>
      </trkpt>
      <trkpt lat="45.31308" lon="5.75399">
        <ele>1631.4</ele>
        <time>2011-01-02T11:52:26.001Z</time>
      </trkpt>
      <trkpt lat="45.31301" lon="5.75403">
        <ele>1631.3</ele>
        <time>2011-01-02T11:52:30.998Z</time>
      </trkpt>
      <trkpt lat="45.31293" lon="5.75406">
        <ele>1630.3</ele>
        <time>2011-01-02T11:52:35.998Z</time>
      </trkpt>
      <trkpt lat="45.31285" lon="5.7541">
        <ele>1629.2</ele>
        <time>2011-01-02T11:52:40.997Z</time>
      </trkpt>
      <trkpt lat="45.31274" lon="5.75416">
        <ele>1627.8</ele>
        <time>2011-01-02T11:52:46Z</time>
      </trkpt>
      <trkpt lat="45.31262" lon="5.75423">
        <ele>1627.4</ele>
        <time>2011-01-02T11:52:51Z</time>
      </trkpt>
      <trkpt lat="45.3125" lon="5.75431">
        <ele>1627.2</ele>
        <time>2011-01-02T11:52:56Z</time>
      </trkpt>
      <trkpt lat="45.3124" lon="5.75441">
        <ele>1628.3</ele>
        <time>2011-01-02T11:53:00.998Z</time>
      </trkpt>
      <trkpt lat="45.31231" lon="5.7545">
        <ele>1628.6</ele>
        <time>2011-01-02T11:53:05.998Z</time>
      </trkpt>
      <trkpt lat="45.31225" lon="5.75456">
        <ele>1629.7</ele>
        <time>2011-01-02T11:53:10.998Z</time>
      </trkpt>
      <trkpt lat="45.31219" lon="5.75463">
        <ele>1631.1</ele>
        <time>2011-01-02T11:53:15.998Z</time>
      </trkpt>
      <trkpt lat="45.31213" lon="5.7547">
        <ele>1631.3</ele>
        <time>2011-01-02T11:53:20.998Z</time>
      </trkpt>
      <trkpt lat="45.31207" lon="5.75476">
        <ele>1630.1</ele>
        <time>2011-01-02T11:53:26Z</time>
      </trkpt>
      <trkpt lat="45.31201" lon="5.7548">
        <ele>1629.3</ele>
        <time>2011-01-02T11:53:31Z</time>
      </trkpt>
      <trkpt lat="45.31195" lon="5.75482">
        <ele>1629.5</ele>
        <time>2011-01-02T11:53:35.998Z</time>
      </trkpt>
      <trkpt lat="45.31191" lon="5.75484">
        <ele>1633.7</ele>
        <time>2011-01-02T11:53:45.997Z</time>
      </trkpt>
      <trkpt lat="45.31188" lon="5.75484">
        <ele>1635.4</ele>
        <time>2011-01-02T11:53:50.998Z</time>
      </trkpt>
      <trkpt lat="45.31184" lon="5.75484">
        <ele>1636.7</ele>
        <time>2011-01-02T11:53:56Z</time>
      </trkpt>
      <trkpt lat="45.3118" lon="5.75481">
        <ele>1638.6</ele>
        <time>2011-01-02T11:54:05.998Z</time>
      </trkpt>
      <trkpt lat="45.31175" lon="5.75481">
        <ele>1639.5</ele>
        <time>2011-01-02T11:54:10.998Z</time>
      </trkpt>
      <trkpt lat="45.3117" lon="5.75481">
        <ele>1640.5</ele>
        <time>2011-01-02T11:54:15.998Z</time>
      </trkpt>
      <trkpt lat="45.31163" lon="5.75478">
        <ele>1641.5</ele>
        <time>2011-01-02T11:54:20.998Z</time>
      </trkpt>
      <trkpt lat="45.31157" lon="5.75477">
        <ele>1642</ele>
        <time>2011-01-02T11:54:26Z</time>
      </trkpt>
      <trkpt lat="45.31153" lon="5.75476">
        <ele>1641.5</ele>
        <time>2011-01-02T11:54:31.001Z</time>
      </trkpt>
      <trkpt lat="45.31149" lon="5.75477">
        <ele>1640.6</ele>
        <time>2011-01-02T11:54:36.001Z</time>
      </trkpt>
      <trkpt lat="45.31146" lon="5.75477">
        <ele>1640.2</ele>
        <time>2011-01-02T11:54:41.001Z</time>
      </trkpt>
      <trkpt lat="45.31143" lon="5.75477">
        <ele>1638.6</ele>
        <time>2011-01-02T11:54:46Z</time>
      </trkpt>
      <trkpt lat="45.31139" lon="5.75477">
        <ele>1637.2</ele>
        <time>2011-01-02T11:54:50.995Z</time>
      </trkpt>
      <trkpt lat="45.31136" lon="5.75477">
        <ele>1636.3</ele>
        <time>2011-01-02T11:54:55.998Z</time>
      </trkpt>
      <trkpt lat="45.31132" lon="5.75476">
        <ele>1635.6</ele>
        <time>2011-01-02T11:55:01.001Z</time>
      </trkpt>
      <trkpt lat="45.31127" lon="5.75474">
        <ele>1634.8</ele>
        <time>2011-01-02T11:55:06.002Z</time>
      </trkpt>
      <trkpt lat="45.31121" lon="5.75472">
        <ele>1635</ele>
        <time>2011-01-02T11:55:10.997Z</time>
      </trkpt>
      <trkpt lat="45.31115" lon="5.75469">
        <ele>1634.9</ele>
        <time>2011-01-02T11:55:15.997Z</time>
      </trkpt>
      <trkpt lat="45.31108" lon="5.75465">
        <ele>1634.4</ele>
        <time>2011-01-02T11:55:21.001Z</time>
      </trkpt>
      <trkpt lat="45.31102" lon="5.75464">
        <ele>1626.5</ele>
        <time>2011-01-02T11:55:41Z</time>
      </trkpt>
      <trkpt lat="45.31096" lon="5.75459">
        <ele>1625.2</ele>
        <time>2011-01-02T11:55:46.001Z</time>
      </trkpt>
      <trkpt lat="45.31082" lon="5.75443">
        <ele>1623.8</ele>
        <time>2011-01-02T11:55:51Z</time>
      </trkpt>
      <trkpt lat="45.31065" lon="5.75431">
        <ele>1621.7</ele>
        <time>2011-01-02T11:55:56Z</time>
      </trkpt>
      <trkpt lat="45.3104" lon="5.75418">
        <ele>1618.2</ele>
        <time>2011-01-02T11:56:01.001Z</time>
      </trkpt>
      <trkpt lat="45.31012" lon="5.75411">
        <ele>1613.7</ele>
        <time>2011-01-02T11:56:05.998Z</time>
      </trkpt>
      <trkpt lat="45.3098" lon="5.75409">
        <ele>1608.3</ele>
        <time>2011-01-02T11:56:11Z</time>
      </trkpt>
      <trkpt lat="45.30953" lon="5.75403">
        <ele>1601.6</ele>
        <time>2011-01-02T11:56:16Z</time>
      </trkpt>
      <trkpt lat="45.30927" lon="5.75382">
        <ele>1597.1</ele>
        <time>2011-01-02T11:56:21Z</time>
      </trkpt>
      <trkpt lat="45.30906" lon="5.75354">
        <ele>1592.9</ele>
        <time>2011-01-02T11:56:25.998Z</time>
      </trkpt>
      <trkpt lat="45.30883" lon="5.75331">
        <ele>1588.5</ele>
        <time>2011-01-02T11:56:31.001Z</time>
      </trkpt>
      <trkpt lat="45.30854" lon="5.75309">
        <ele>1583.5</ele>
        <time>2011-01-02T11:56:36.001Z</time>
      </trkpt>
      <trkpt lat="45.30824" lon="5.75287">
        <ele>1579</ele>
        <time>2011-01-02T11:56:41.001Z</time>
      </trkpt>
      <trkpt lat="45.30797" lon="5.75263">
        <ele>1575.2</ele>
        <time>2011-01-02T11:56:45.997Z</time>
      </trkpt>
      <trkpt lat="45.30774" lon="5.75233">
        <ele>1572.8</ele>
        <time>2011-01-02T11:56:51Z</time>
      </trkpt>
      <trkpt lat="45.30749" lon="5.75206">
        <ele>1571.3</ele>
        <time>2011-01-02T11:56:56Z</time>
      </trkpt>
      <trkpt lat="45.30755" lon="5.75231">
        <ele>1567.9</ele>
        <time>2011-01-02T11:57:01Z</time>
      </trkpt>
      <trkpt lat="45.30789" lon="5.75291">
        <ele>1566.9</ele>
        <time>2011-01-02T11:57:05.998Z</time>
      </trkpt>
      <trkpt lat="45.30821" lon="5.75355">
        <ele>1567.4</ele>
        <time>2011-01-02T11:57:11Z</time>
      </trkpt>
      <trkpt lat="45.30853" lon="5.7542">
        <ele>1566.2</ele>
        <time>2011-01-02T11:57:15.998Z</time>
      </trkpt>
      <trkpt lat="45.30875" lon="5.75481">
        <ele>1564.9</ele>
        <time>2011-01-02T11:57:21.004Z</time>
      </trkpt>
      <trkpt lat="45.30892" lon="5.75537">
        <ele>1561.3</ele>
        <time>2011-01-02T11:57:26Z</time>
      </trkpt>
      <trkpt lat="45.309" lon="5.75567">
        <ele>1554.5</ele>
        <time>2011-01-02T11:57:31Z</time>
      </trkpt>
      <trkpt lat="45.3088" lon="5.7555">
        <ele>1548.4</ele>
        <time>2011-01-02T11:57:36Z</time>
      </trkpt>
      <trkpt lat="45.30847" lon="5.75522">
        <ele>1540.6</ele>
        <time>2011-01-02T11:57:41.002Z</time>
      </trkpt>
      <trkpt lat="45.30809" lon="5.75503">
        <ele>1532.8</ele>
        <time>2011-01-02T11:57:46.004Z</time>
      </trkpt>
      <trkpt lat="45.30775" lon="5.75487">
        <ele>1525.8</ele>
        <time>2011-01-02T11:57:51.001Z</time>
      </trkpt>
      <trkpt lat="45.30736" lon="5.75455">
        <ele>1519.4</ele>
        <time>2011-01-02T11:57:55.998Z</time>
      </trkpt>
      <trkpt lat="45.30696" lon="5.75421">
        <ele>1511.1</ele>
        <time>2011-01-02T11:58:01Z</time>
      </trkpt>
      <trkpt lat="45.30657" lon="5.75383">
        <ele>1505.5</ele>
        <time>2011-01-02T11:58:06.001Z</time>
      </trkpt>
      <trkpt lat="45.30613" lon="5.75345">
        <ele>1501.7</ele>
        <time>2011-01-02T11:58:11Z</time>
      </trkpt>
      <trkpt lat="45.30562" lon="5.75307">
        <ele>1498.5</ele>
        <time>2011-01-02T11:58:16Z</time>
      </trkpt>
      <trkpt lat="45.30516" lon="5.75278">
        <ele>1495.6</ele>
        <time>2011-01-02T11:58:21Z</time>
      </trkpt>
      <trkpt lat="45.30472" lon="5.75288">
        <ele>1493.1</ele>
        <time>2011-01-02T11:58:25.998Z</time>
      </trkpt>
      <trkpt lat="45.30436" lon="5.75291">
        <ele>1491.3</ele>
        <time>2011-01-02T11:58:31Z</time>
      </trkpt>
      <trkpt lat="45.30423" lon="5.75291">
        <ele>1489.7</ele>
        <time>2011-01-02T11:58:35.998Z</time>
      </trkpt>
      <trkpt lat="45.30441" lon="5.75292">
        <ele>1482.4</ele>
        <time>2011-01-02T11:58:51Z</time>
      </trkpt>
      <trkpt lat="45.30445" lon="5.75313">
        <ele>1507.6</ele>
        <time>2011-01-02T12:00:41Z</time>
      </trkpt>
      <trkpt lat="45.30457" lon="5.75339">
        <ele>1503.8</ele>
        <time>2011-01-02T12:00:46Z</time>
      </trkpt>
      <trkpt lat="45.30472" lon="5.75366">
        <ele>1499.1</ele>
        <time>2011-01-02T12:00:51.001Z</time>
      </trkpt>
      <trkpt lat="45.3048" lon="5.75391">
        <ele>1490.1</ele>
        <time>2011-01-02T12:00:55.998Z</time>
      </trkpt>
      <trkpt lat="45.30483" lon="5.75398">
        <ele>1461.5</ele>
        <time>2011-01-02T12:01:15.998Z</time>
      </trkpt>
      <trkpt lat="45.30487" lon="5.75422">
        <ele>1453.7</ele>
        <time>2011-01-02T12:01:21.001Z</time>
      </trkpt>
      <trkpt lat="45.30488" lon="5.7545">
        <ele>1443.7</ele>
        <time>2011-01-02T12:01:25.998Z</time>
      </trkpt>
      <trkpt lat="45.30475" lon="5.75476">
        <ele>1434.4</ele>
        <time>2011-01-02T12:01:31.001Z</time>
      </trkpt>
      <trkpt lat="45.30469" lon="5.75506">
        <ele>1430.7</ele>
        <time>2011-01-02T12:01:36.001Z</time>
      </trkpt>
      <trkpt lat="45.3047" lon="5.75547">
        <ele>1425.9</ele>
        <time>2011-01-02T12:01:41.002Z</time>
      </trkpt>
      <trkpt lat="45.30476" lon="5.75585">
        <ele>1418.8</ele>
        <time>2011-01-02T12:01:46Z</time>
      </trkpt>
      <trkpt lat="45.30494" lon="5.75607">
        <ele>1412.3</ele>
        <time>2011-01-02T12:01:51.001Z</time>
      </trkpt>
      <trkpt lat="45.30512" lon="5.75621">
        <ele>1392</ele>
        <time>2011-01-02T12:02:10.998Z</time>
      </trkpt>
      <trkpt lat="45.30531" lon="5.75648">
        <ele>1388.9</ele>
        <time>2011-01-02T12:02:16Z</time>
      </trkpt>
      <trkpt lat="45.30552" lon="5.75685">
        <ele>1386</ele>
        <time>2011-01-02T12:02:21Z</time>
      </trkpt>
      <trkpt lat="45.30558" lon="5.75727">
        <ele>1384.5</ele>
        <time>2011-01-02T12:02:26Z</time>
      </trkpt>
      <trkpt lat="45.30562" lon="5.75764">
        <ele>1382.5</ele>
        <time>2011-01-02T12:02:31.001Z</time>
      </trkpt>
      <trkpt lat="45.30567" lon="5.75789">
        <ele>1378.9</ele>
        <time>2011-01-02T12:02:36.004Z</time>
      </trkpt>
      <trkpt lat="45.30571" lon="5.75818">
        <ele>1374.4</ele>
        <time>2011-01-02T12:02:41.001Z</time>
      </trkpt>
      <trkpt lat="45.30581" lon="5.75847">
        <ele>1363.3</ele>
        <time>2011-01-02T12:02:46Z</time>
      </trkpt>
      <trkpt lat="45.30596" lon="5.75874">
        <ele>1348.7</ele>
        <time>2011-01-02T12:02:51.001Z</time>
      </trkpt>
      <trkpt lat="45.30598" lon="5.75882">
        <ele>1336.8</ele>
        <time>2011-01-02T12:02:55.997Z</time>
      </trkpt>
      <trkpt lat="45.30594" lon="5.75882">
        <ele>1311.9</ele>
        <time>2011-01-02T12:05:26Z</time>
      </trkpt>
      <trkpt lat="45.30603" lon="5.75886">
        <ele>1312.6</ele>
        <time>2011-01-02T12:05:31.001Z</time>
      </trkpt>
      <trkpt lat="45.30613" lon="5.75897">
        <ele>1311.5</ele>
        <time>2011-01-02T12:05:36Z</time>
      </trkpt>
      <trkpt lat="45.3061" lon="5.75913">
        <ele>1309.3</ele>
        <time>2011-01-02T12:05:41.001Z</time>
      </trkpt>
      <trkpt lat="45.30612" lon="5.7593">
        <ele>1305.4</ele>
        <time>2011-01-02T12:05:46.001Z</time>
      </trkpt>
      <trkpt lat="45.30621" lon="5.75957">
        <ele>1296.6</ele>
        <time>2011-01-02T12:05:55.995Z</time>
      </trkpt>
      <trkpt lat="45.3063" lon="5.75965">
        <ele>1291.3</ele>
        <time>2011-01-02T12:06:00.998Z</time>
      </trkpt>
      <trkpt lat="45.30624" lon="5.75973">
        <ele>1285.1</ele>
        <time>2011-01-02T12:06:11.002Z</time>
      </trkpt>
      <trkpt lat="45.30615" lon="5.75985">
        <ele>1288.4</ele>
        <time>2011-01-02T12:06:26Z</time>
      </trkpt>
      <trkpt lat="45.30631" lon="5.76009">
        <ele>1268.3</ele>
        <time>2011-01-02T12:06:41Z</time>
      </trkpt>
      <trkpt lat="45.30642" lon="5.76022">
        <ele>1258.6</ele>
        <time>2011-01-02T12:06:46Z</time>
      </trkpt>
      <trkpt lat="45.30655" lon="5.76045">
        <ele>1250.1</ele>
        <time>2011-01-02T12:06:51Z</time>
      </trkpt>
      <trkpt lat="45.30672" lon="5.76073">
        <ele>1249.2</ele>
        <time>2011-01-02T12:06:56Z</time>
      </trkpt>
      <trkpt lat="45.30681" lon="5.76089">
        <ele>1250.2</ele>
        <time>2011-01-02T12:07:01Z</time>
      </trkpt>
      <trkpt lat="45.30684" lon="5.76098">
        <ele>1247.4</ele>
        <time>2011-01-02T12:07:06.001Z</time>
      </trkpt>
      <trkpt lat="45.30694" lon="5.7611">
        <ele>1243.9</ele>
        <time>2011-01-02T12:07:10.998Z</time>
      </trkpt>
      <trkpt lat="45.30696" lon="5.7613">
        <ele>1261.6</ele>
        <time>2011-01-02T12:07:46Z</time>
      </trkpt>
      <trkpt lat="45.30714" lon="5.76154">
        <ele>1259.6</ele>
        <time>2011-01-02T12:07:51Z</time>
      </trkpt>
      <trkpt lat="45.30737" lon="5.76197">
        <ele>1254.3</ele>
        <time>2011-01-02T12:07:56Z</time>
      </trkpt>
      <trkpt lat="45.30745" lon="5.76208">
        <ele>1237.7</ele>
        <time>2011-01-02T12:08:11.001Z</time>
      </trkpt>
      <trkpt lat="45.3075" lon="5.76213">
        <ele>1254</ele>
        <time>2011-01-02T12:08:36Z</time>
      </trkpt>
      <trkpt lat="45.30763" lon="5.76234">
        <ele>1252.8</ele>
        <time>2011-01-02T12:08:41.002Z</time>
      </trkpt>
      <trkpt lat="45.3078" lon="5.76255">
        <ele>1249.7</ele>
        <time>2011-01-02T12:08:45.995Z</time>
      </trkpt>
      <trkpt lat="45.30795" lon="5.76287">
        <ele>1246.5</ele>
        <time>2011-01-02T12:08:51Z</time>
      </trkpt>
      <trkpt lat="45.30809" lon="5.76322">
        <ele>1240.2</ele>
        <time>2011-01-02T12:08:56Z</time>
      </trkpt>
      <trkpt lat="45.3082" lon="5.76361">
        <ele>1231.2</ele>
        <time>2011-01-02T12:09:00.998Z</time>
      </trkpt>
      <trkpt lat="45.30831" lon="5.76397">
        <ele>1221.6</ele>
        <time>2011-01-02T12:09:05.998Z</time>
      </trkpt>
      <trkpt lat="45.30845" lon="5.76431">
        <ele>1215.2</ele>
        <time>2011-01-02T12:09:11Z</time>
      </trkpt>
      <trkpt lat="45.30848" lon="5.76471">
        <ele>1210.7</ele>
        <time>2011-01-02T12:09:16Z</time>
      </trkpt>
      <trkpt lat="45.30834" lon="5.76507">
        <ele>1205.8</ele>
        <time>2011-01-02T12:09:21.001Z</time>
      </trkpt>
      <trkpt lat="45.30813" lon="5.76532">
        <ele>1198.2</ele>
        <time>2011-01-02T12:09:26Z</time>
      </trkpt>
      <trkpt lat="45.308" lon="5.76553">
        <ele>1190</ele>
        <time>2011-01-02T12:09:31Z</time>
      </trkpt>
      <trkpt lat="45.30796" lon="5.76581">
        <ele>1179.5</ele>
        <time>2011-01-02T12:09:36Z</time>
      </trkpt>
      <trkpt lat="45.30794" lon="5.76619">
        <ele>1169.4</ele>
        <time>2011-01-02T12:09:40.998Z</time>
      </trkpt>
      <trkpt lat="45.30775" lon="5.76662">
        <ele>1159.7</ele>
        <time>2011-01-02T12:09:46Z</time>
      </trkpt>
      <trkpt lat="45.30755" lon="5.76689">
        <ele>1155.6</ele>
        <time>2011-01-02T12:09:51.001Z</time>
      </trkpt>
      <trkpt lat="45.30741" lon="5.76697">
        <ele>1151.3</ele>
        <time>2011-01-02T12:09:55.998Z</time>
      </trkpt>
      <trkpt lat="45.30724" lon="5.76711">
        <ele>1149.2</ele>
        <time>2011-01-02T12:10:00.998Z</time>
      </trkpt>
      <trkpt lat="45.30708" lon="5.76729">
        <ele>1147.3</ele>
        <time>2011-01-02T12:10:05.998Z</time>
      </trkpt>
      <trkpt lat="45.30696" lon="5.76742">
        <ele>1144.3</ele>
        <time>2011-01-02T12:10:11.001Z</time>
      </trkpt>
      <trkpt lat="45.30683" lon="5.76749">
        <ele>1142.1</ele>
        <time>2011-01-02T12:10:16Z</time>
      </trkpt>
      <trkpt lat="45.3068" lon="5.76753">
        <ele>1150.2</ele>
        <time>2011-01-02T12:10:31.001Z</time>
      </trkpt>
      <trkpt lat="45.30683" lon="5.7676">
        <ele>1148.6</ele>
        <time>2011-01-02T12:10:35.997Z</time>
      </trkpt>
      <trkpt lat="45.30688" lon="5.76771">
        <ele>1147.1</ele>
        <time>2011-01-02T12:10:41Z</time>
      </trkpt>
      <trkpt lat="45.30692" lon="5.76785">
        <ele>1144.9</ele>
        <time>2011-01-02T12:10:46.001Z</time>
      </trkpt>
      <trkpt lat="45.30697" lon="5.76806">
        <ele>1161.7</ele>
        <time>2011-01-02T12:11:46.001Z</time>
      </trkpt>
      <trkpt lat="45.307" lon="5.7681">
        <ele>1162.8</ele>
        <time>2011-01-02T12:11:51Z</time>
      </trkpt>
      <trkpt lat="45.30703" lon="5.76816">
        <ele>1164.1</ele>
        <time>2011-01-02T12:11:56.001Z</time>
      </trkpt>
      <trkpt lat="45.30705" lon="5.7682">
        <ele>1164.3</ele>
        <time>2011-01-02T12:12:01Z</time>
      </trkpt>
      <trkpt lat="45.30705" lon="5.76826">
        <ele>1163.5</ele>
        <time>2011-01-02T12:12:05.998Z</time>
      </trkpt>
      <trkpt lat="45.30706" lon="5.76831">
        <ele>1163.4</ele>
        <time>2011-01-02T12:12:11Z</time>
      </trkpt>
      <trkpt lat="45.30705" lon="5.76838">
        <ele>1162</ele>
        <time>2011-01-02T12:12:21Z</time>
      </trkpt>
      <trkpt lat="45.30699" lon="5.76849">
        <ele>1157.2</ele>
        <time>2011-01-02T12:12:31Z</time>
      </trkpt>
      <trkpt lat="45.30697" lon="5.76855">
        <ele>1157.5</ele>
        <time>2011-01-02T12:12:36.001Z</time>
      </trkpt>
      <trkpt lat="45.30694" lon="5.76863">
        <ele>1156.8</ele>
        <time>2011-01-02T12:12:45.998Z</time>
      </trkpt>
      <trkpt lat="45.30694" lon="5.76873">
        <ele>1156.4</ele>
        <time>2011-01-02T12:12:55.998Z</time>
      </trkpt>
      <trkpt lat="45.30699" lon="5.76881">
        <ele>1157.4</ele>
        <time>2011-01-02T12:13:01Z</time>
      </trkpt>
      <trkpt lat="45.30703" lon="5.7689">
        <ele>1157.1</ele>
        <time>2011-01-02T12:13:05.998Z</time>
      </trkpt>
      <trkpt lat="45.3071" lon="5.76906">
        <ele>1157.3</ele>
        <time>2011-01-02T12:13:10.998Z</time>
      </trkpt>
      <trkpt lat="45.30719" lon="5.76928">
        <ele>1155.6</ele>
        <time>2011-01-02T12:13:15.998Z</time>
      </trkpt>
      <trkpt lat="45.30733" lon="5.76973">
        <ele>1150.5</ele>
        <time>2011-01-02T12:13:21.002Z</time>
      </trkpt>
      <trkpt lat="45.30746" lon="5.77018">
        <ele>1143.1</ele>
        <time>2011-01-02T12:13:26Z</time>
      </trkpt>
      <trkpt lat="45.30754" lon="5.77059">
        <ele>1136.1</ele>
        <time>2011-01-02T12:13:31Z</time>
      </trkpt>
      <trkpt lat="45.30759" lon="5.77091">
        <ele>1128.9</ele>
        <time>2011-01-02T12:13:36Z</time>
      </trkpt>
      <trkpt lat="45.30762" lon="5.77122">
        <ele>1124</ele>
        <time>2011-01-02T12:13:41.001Z</time>
      </trkpt>
      <trkpt lat="45.30762" lon="5.77144">
        <ele>1122.8</ele>
        <time>2011-01-02T12:13:46Z</time>
      </trkpt>
      <trkpt lat="45.30763" lon="5.77153">
        <ele>1122.1</ele>
        <time>2011-01-02T12:13:51.001Z</time>
      </trkpt>
      <trkpt lat="45.30765" lon="5.7716">
        <ele>1123.8</ele>
        <time>2011-01-02T12:13:56Z</time>
      </trkpt>
      <trkpt lat="45.30761" lon="5.77192">
        <ele>1158.4</ele>
        <time>2011-01-02T12:15:05.998Z</time>
      </trkpt>
      <trkpt lat="45.30761" lon="5.77202">
        <ele>1155.9</ele>
        <time>2011-01-02T12:15:11.002Z</time>
      </trkpt>
      <trkpt lat="45.30761" lon="5.77206">
        <ele>1152</ele>
        <time>2011-01-02T12:15:16.001Z</time>
      </trkpt>
      <trkpt lat="45.30759" lon="5.77212">
        <ele>1150.2</ele>
        <time>2011-01-02T12:15:20.998Z</time>
      </trkpt>
      <trkpt lat="45.30764" lon="5.77228">
        <ele>1146.9</ele>
        <time>2011-01-02T12:15:36Z</time>
      </trkpt>
      <trkpt lat="45.30762" lon="5.77245">
        <ele>1156.5</ele>
        <time>2011-01-02T12:18:51Z</time>
      </trkpt>
    </trkseg>
  </trk>
</gpx>